• Join FlightAware (Why Join?)
  • Login
  • US Flag 
Rudolph Flight #1: Scheduled 
07:58PM EST


 

Airport Tracker/Info


-or-


 

Live Flight TrackerFlight Track Log ✈ AAL963 ✈ 20-Jul-2014 ✈ KDFW - SBGR / GRU

Flight Track Log - Related Links

Times and Time Zones

All times are in EDT time to prevent confusion due to time zone crossing. See the AAL963 flight status page for this flight to view local times or setup timezone preferences in your user account.

Time Position Orientation Groundspeed Altitude Reporting Facility
EDT Latitude Longitude Course Direction KTS MPH feet Rate Location/Type
10:42PM 32.8612 -97.0285 171° South 184 212 2,000  Level FlightAware ADS-B
10:43PM 32.7982 -97.0100 165° South 245 282 2,900 960 Climbing FlightAware ADS-B
10:44PM 32.7753 -97.0020 162° South 257 296 3,400 1,440 Climbing FlightAware ADS-B
10:44PM 32.7524 -96.9928 161° South 264 304 3,900 1,800 Climbing FlightAware ADS-B
10:44PM 32.7294 -96.9836 161° South 270 311 4,600 2,280 Climbing FlightAware ADS-B
10:44PM 32.7096 -96.9759 162° South 272 313 5,300 1,980 Climbing FlightAware ADS-B
10:45PM 32.6962 -96.9710 163° South 276 318 5,900 1,620 Climbing FlightAware ADS-B
10:45PM 32.6571 -96.9563 162° South 281 323 6,500 1,740 Climbing FlightAware ADS-B
10:46PM 32.6314 -96.9462 162° South 285 328 7,100 1,800 Climbing FlightAware ADS-B
10:46PM 32.6138 -96.9395 162° South 291 335 7,700 1,800 Climbing FlightAware ADS-B
10:46PM 32.5803 -96.9270 162° South 292 336 8,300 1,740 Climbing FlightAware ADS-B
10:46PM 32.5670 -96.9219 162° South 296 341 8,900 1,980 Climbing FlightAware ADS-B
10:47PM 32.5325 -96.9089 162° South 298 343 9,600 1,560 Climbing FlightAware ADS-B
10:47PM 32.4751 -96.8872 162° South 316 364 10,500 1,020 Climbing FlightAware ADS-B
10:48PM 32.4150 -96.8646 162° South 349 402 11,000 720 Climbing FlightAware ADS-B
10:49PM 32.3539 -96.8416 162° South 377 434 11,500 1,200 Climbing FlightAware ADS-B
10:49PM 32.2843 -96.8154 162° South 387 445 12,600 2,100 Climbing FlightAware ADS-B
10:50PM 32.2174 -96.7900 162° South 376 433 14,400 2,220 Climbing FlightAware ADS-B
10:51PM 32.1687 -96.7713 161° South 378 435 15,200 2,100 Climbing FlightAware ADS-B (KHOU)
10:51PM 32.1598 -96.7680 162° South 380 437 15,600 1,860 Climbing FlightAware ADS-B
10:51PM 32.1357 -96.7587 162° South 379 436 15,800 1,200 Climbing FlightAware ADS-B (KHOU)
10:51PM 32.0826 -96.7385 162° South 391 450 16,500 1,260 Climbing FlightAware ADS-B
10:52PM 32.0235 -96.7160 162° South 398 458 17,300 1,260 Climbing FlightAware ADS-B (KHOU)
10:53PM 31.9403 -96.6845 162° South 415 478 18,300 1,440 Climbing FlightAware ADS-B (KHOU)
10:53PM 31.9181 -96.6761 162° South 417 480 18,700 1,020 Climbing FlightAware ADS-B
10:54PM 31.8477 -96.6489 160° South 434 499 19,100 1,020 Climbing FlightAware ADS-B (KHOU)
10:54PM 31.7698 -96.6165 160° South 437 503 20,000 1,260 Climbing FlightAware ADS-B
10:55PM 31.7411 -96.6045 160° South 453 521 20,700 1,200 Climbing FlightAware ADS-B
10:56PM 31.6219 -96.5558 160° South 462 532 21,500 1,080 Climbing FlightAware ADS-B
10:56PM 31.5694 -96.5345 160° South 469 540 22,000 1,200 Climbing FlightAware ADS-B (KHOU)
10:57PM 31.4999 -96.5063 161° South 473 544 22,700 1,500 Climbing FlightAware ADS-B
10:57PM 31.4363 -96.4827 162° South 471 542 23,500 1,260 Climbing FlightAware ADS-B
10:58PM 31.3738 -96.4597 162° South 475 547 24,000 1,080 Climbing FlightAware ADS-B (KHOU)
10:58PM 31.3092 -96.4358 162° South 479 551 24,600 1,080 Climbing FlightAware ADS-B
10:59PM 31.2460 -96.4122 162° South 484 557 25,100 1,080 Climbing FlightAware ADS-B
10:59PM 31.1839 -96.3822 148° Southeast 488 562 25,700 1,080 Climbing FlightAware ADS-B (KHOU)
10:59PM 31.1481 -96.3496 135° Southeast 491 565 26,000 840 Climbing FlightAware ADS-B
11:00PM 31.1066 -96.2875 125° Southeast 494 568 26,400 900 Climbing FlightAware ADS-B
11:00PM 31.0667 -96.2225 125° Southeast 497 572 26,900 840 Climbing FlightAware ADS-B
11:01PM 31.0260 -96.1559 125° Southeast 500 575 27,300 780 Climbing FlightAware ADS-B
11:01PM 30.9855 -96.0898 125° Southeast 503 579 27,700 780 Climbing FlightAware ADS-B
11:02PM 30.9447 -96.0237 125° Southeast 507 583 28,100 780 Climbing FlightAware ADS-B
11:02PM 30.9041 -95.9581 125° Southeast 509 586 28,500 780 Climbing FlightAware ADS-B
11:03PM 30.8624 -95.8908 125° Southeast 511 588 28,900 840 Climbing FlightAware ADS-B
11:03PM 30.8197 -95.8243 128° Southeast 514 592 29,400 900 Climbing FlightAware ADS-B
11:04PM 30.7723 -95.7623 133° Southeast 515 593 29,800 660 Climbing FlightAware ADS-B
11:04PM 30.7209 -95.7041 136° Southeast 519 597 30,100 660 Climbing FlightAware ADS-B
11:05PM 30.6690 -95.6465 136° Southeast 520 598 30,500 660 Climbing FlightAware ADS-B
11:05PM 30.6159 -95.5878 136° Southeast 524 603 30,800 600 Climbing FlightAware ADS-B
11:06PM 30.5688 -95.5357 136° Southeast 525 604 31,100 900 Climbing FlightAware ADS-B
11:06PM 30.5110 -95.4717 136° Southeast 521 600 31,700 1,080 Climbing FlightAware ADS-B
11:07PM 30.4586 -95.4138 136° Southeast 518 596 32,200 900 Climbing FlightAware ADS-B
11:07PM 30.4097 -95.3597 136° Southeast 517 595 32,600 660 Climbing FlightAware ADS-B
11:08PM 30.3587 -95.3035 136° Southeast 519 597 32,900 300 Climbing FlightAware ADS-B
11:09PM 30.2850 -95.2223 136° Southeast 519 597 33,000 60 Climbing FlightAware ADS-B
11:09PM 30.2332 -95.1654 136° Southeast 517 595 33,000  Level FlightAware ADS-B
11:10PM 30.1807 -95.1077 136° Southeast 517 595 33,000  Level FlightAware ADS-B
11:10PM 30.1288 -95.0509 136° Southeast 516 594 33,000  Level FlightAware ADS-B
11:11PM 30.0773 -94.9946 136° Southeast 514 592 33,000  Level FlightAware ADS-B
11:11PM 30.0256 -94.9381 136° Southeast 514 592 33,000  Level FlightAware ADS-B
11:12PM 29.9742 -94.8821 136° Southeast 513 590 33,000  Level FlightAware ADS-B
11:12PM 29.9219 -94.8253 136° Southeast 512 589 33,000  Level FlightAware ADS-B
11:13PM 29.8714 -94.7702 136° Southeast 512 589 33,000  Level FlightAware ADS-B
11:13PM 29.8196 -94.7141 136° Southeast 512 589 33,000  Level FlightAware ADS-B
11:14PM 29.7671 -94.6572 136° Southeast 511 588 33,000  Level FlightAware ADS-B
11:14PM 29.7161 -94.6020 136° Southeast 510 587 33,000  Level FlightAware ADS-B
11:14PM 29.6969 -94.5811 136° Southeast 511 588 33,000  Level FlightAware ADS-B
11:15PM 29.6119 -94.4895 136° Southeast 510 587 33,000  Level FlightAware ADS-B
11:15PM 29.5862 -94.4619 136° Southeast 510 587 33,000  Level FlightAware ADS-B
11:16PM 29.5113 -94.3812 136° Southeast 510 587 33,000  Level FlightAware ADS-B
11:17PM 29.4568 -94.3227 136° Southeast 510 587 33,000  Level FlightAware ADS-B
11:17PM 29.4078 -94.2701 136° Southeast 511 588 33,000  Level FlightAware ADS-B
11:18PM 29.3596 -94.2184 136° Southeast 512 589 33,000  Level FlightAware ADS-B
11:18PM 29.2845 -94.1381 136° Southeast 512 589 33,000  Level FlightAware ADS-B (KHOU)
11:19PM 29.2057 -94.0541 136° Southeast 510 587 33,000  Level FlightAware ADS-B (KHOU)
11:20PM 29.1337 -93.9775 136° Southeast 507 583 33,000  Level FlightAware ADS-B (KHOU)
11:20PM 29.1092 -93.9515 136° Southeast 507 583 33,000  Level FlightAware ADS-B (KHOU)
11:21PM 29.0192 -93.8603 136° Southeast 511 588 33,000  Level Houston Center
11:22PM 28.9181 -93.7450 135° Southeast 511 588 33,000  Level Houston Center
11:23PM 28.8147 -93.6394 138° Southeast 503 579 33,000  Level Houston Center
11:24PM 28.7106 -93.5300 137° Southeast 505 581 33,000 -60 Level Houston Center
11:25PM 28.6056 -93.4194 137° Southeast 511 588 32,900  Descending Houston Center
11:26PM 28.5000 -93.3089 137° Southeast 511 588 33,000  Climbing Houston Center
11:27PM 28.3972 -93.2022 138° Southeast 510 587 32,900 -60 Descending Houston Center
11:28PM 28.2922 -93.0931 138° Southeast 510 587 32,900  Level Houston Center
11:29PM 28.1889 -92.9858 138° Southeast 509 586 33,000  Climbing Houston Center
11:30PM 28.0656 -92.8556 137° Southeast 507 583 33,000  Level Houston Center
11:36PM 27.4913 -92.2692 137° Southeast 500 575 33,000  Level FlightAware ADS-B (KHOU)
11:36PM 27.4456 -92.2250 137° Southeast 500 575 33,000  Level Houston Center
11:37PM 27.3433 -92.1194 137° Southeast 500 575 33,000  Level Houston Center
11:38PM 27.2389 -92.0153 138° Southeast 500 575 33,000 -60 Level Houston Center
11:39PM 27.1319 -91.9153 140° Southeast 500 575 32,900  Descending Houston Center
12:12AM 23.4648 -88.9955 139° Southeast 486 559 33,000  Climbing FlightAware ADS-B (MMUN / CUN)
12:13AM 23.4135 -88.9484 139° Southeast 486 559 33,000  Level FlightAware ADS-B (MMUN / CUN)
12:13AM 23.3647 -88.9037 139° Southeast 486 559 33,000  Level FlightAware ADS-B (MMUN / CUN)
12:14AM 23.3117 -88.8550 139° Southeast 484 557 33,000  Level FlightAware ADS-B (MMUN / CUN)
12:14AM 23.2619 -88.8095 139° Southeast 483 556 33,000  Level FlightAware ADS-B (MMUN / CUN)
12:15AM 23.2144 -88.7658 139° Southeast 482 555 33,000  Level FlightAware ADS-B (MMUN / CUN)
12:15AM 23.1625 -88.7183 139° Southeast 481 554 33,000  Level FlightAware ADS-B (MMUN / CUN)
12:15AM 23.1431 -88.7005 139° Southeast 481 554 33,000  Level FlightAware ADS-B (MMUN / CUN)
12:16AM 23.0565 -88.6204 139° Southeast 481 554 33,000  Level FlightAware ADS-B (MMUN / CUN)
12:16AM 23.0306 -88.5963 139° Southeast 482 555 33,000  Level FlightAware ADS-B (MMUN / CUN)
12:17AM 22.9520 -88.5235 139° Southeast 482 555 33,000  Level FlightAware ADS-B (MMUN / CUN)
12:17AM 22.9286 -88.5019 139° Southeast 482 555 33,000  Level FlightAware ADS-B (MMUN / CUN)
12:18AM 22.8502 -88.4296 139° Southeast 481 554 33,000  Level FlightAware ADS-B (MMUN / CUN)
12:19AM 22.8014 -88.3847 139° Southeast 482 555 33,000  Level FlightAware ADS-B (MMUN / CUN)
12:19AM 22.7495 -88.3369 139° Southeast 482 555 33,000  Level FlightAware ADS-B (MMUN / CUN)
12:20AM 22.6978 -88.2894 139° Southeast 482 555 33,000  Level FlightAware ADS-B (MMUN / CUN)
12:20AM 22.6470 -88.2428 139° Southeast 482 555 33,000  Level FlightAware ADS-B (MMUN / CUN)
12:21AM 22.5966 -88.1965 139° Southeast 481 554 33,000  Level FlightAware ADS-B (MMUN / CUN)
12:21AM 22.5453 -88.1495 139° Southeast 480 552 33,000  Level FlightAware ADS-B (MMUN / CUN)
12:22AM 22.4971 -88.1053 139° Southeast 480 552 33,000  Level FlightAware ADS-B (MMUN / CUN)
12:22AM 22.4433 -88.0560 139° Southeast 480 552 33,000 180 Level FlightAware ADS-B (MMUN / CUN)
12:23AM 22.3862 -88.0039 139° Southeast 480 552 33,200 600 Climbing FlightAware ADS-B (MMUN / CUN)
12:23AM 22.3316 -87.9541 139° Southeast 478 550 33,700 840 Climbing FlightAware ADS-B (MMUN / CUN)
12:24AM 22.2844 -87.9110 139° Southeast 476 548 34,100 780 Climbing FlightAware ADS-B (MMUN / CUN)
12:24AM 22.2318 -87.8631 139° Southeast 477 549 34,500 540 Climbing FlightAware ADS-B (MMUN / CUN)
12:25AM 22.1801 -87.8161 139° Southeast 479 551 34,700 480 Climbing FlightAware ADS-B (MMUN / CUN)
12:25AM 22.1293 -87.7699 139° Southeast 479 551 35,000 300 Climbing FlightAware ADS-B (MMUN / CUN)
12:26AM 22.0777 -87.7230 139° Southeast 476 548 35,000  Level FlightAware ADS-B (MMUN / CUN)
12:26AM 22.0301 -87.6797 139° Southeast 476 548 35,000  Level FlightAware ADS-B (MMUN / CUN)
12:27AM 21.9779 -87.6324 139° Southeast 476 548 35,000  Level FlightAware ADS-B (MMUN / CUN)
12:27AM 21.9262 -87.5857 139° Southeast 476 548 35,000  Level FlightAware ADS-B (MMUN / CUN)
12:28AM 21.8806 -87.5444 139° Southeast 476 548 35,000  Level FlightAware ADS-B (MMUN / CUN)
12:28AM 21.8322 -87.5006 139° Southeast 476 548 35,000  Level FlightAware ADS-B (MMUN / CUN)
12:29AM 21.7760 -87.4499 139° Southeast 476 548 35,000  Level FlightAware ADS-B (MMUN / CUN)
12:29AM 21.7282 -87.4067 139° Southeast 476 548 35,000  Level FlightAware ADS-B (MMUN / CUN)
12:30AM 21.6778 -87.3614 139° Southeast 476 548 35,000  Level FlightAware ADS-B (MMUN / CUN)
12:30AM 21.6255 -87.3142 139° Southeast 476 548 35,000  Level FlightAware ADS-B (MMUN / CUN)
12:31AM 21.5713 -87.2654 140° Southeast 477 549 35,000  Level FlightAware ADS-B (MMUN / CUN)
12:31AM 21.5240 -87.2230 139° Southeast 478 550 35,000  Level FlightAware ADS-B (MMUN / CUN)
12:32AM 21.4725 -87.1766 140° Southeast 477 549 35,000  Level FlightAware ADS-B (MMUN / CUN)
12:32AM 21.4254 -87.1345 140° Southeast 477 549 35,000  Level FlightAware ADS-B (MMUN / CUN)
12:33AM 21.3718 -87.0864 139° Southeast 478 550 35,000  Level FlightAware ADS-B (MMUN / CUN)
12:33AM 21.3193 -87.0393 140° Southeast 478 550 35,000  Level FlightAware ADS-B (MMUN / CUN)
12:34AM 21.2662 -86.9918 139° Southeast 479 551 35,000  Level FlightAware ADS-B (MMUN / CUN)
12:34AM 21.2187 -86.9494 140° Southeast 477 549 35,000  Level FlightAware ADS-B (MMUN / CUN)
12:35AM 21.1647 -86.9013 140° Southeast 475 547 35,000  Level FlightAware ADS-B (MMUN / CUN)
12:35AM 21.1172 -86.8588 139° Southeast 474 545 35,000  Level FlightAware ADS-B (MMUN / CUN)
12:36AM 21.0654 -86.8077 131° Southeast 472 543 35,000  Level FlightAware ADS-B (MMUN / CUN)
12:36AM 21.0231 -86.7544 129° Southeast 472 543 35,000  Level FlightAware ADS-B (MMUN / CUN)
12:37AM 20.9852 -86.7062 130° Southeast 473 544 35,000  Level FlightAware ADS-B (MMUN / CUN)
12:37AM 20.9378 -86.6462 129° Southeast 474 545 35,000  Level FlightAware ADS-B (MMUN / CUN)
12:38AM 20.8958 -86.5925 129° Southeast 474 545 35,000  Level FlightAware ADS-B (MMUN / CUN)
12:38AM 20.8570 -86.5430 129° Southeast 475 547 35,000  Level FlightAware ADS-B (MMUN / CUN)
12:39AM 20.8133 -86.4874 129° Southeast 475 547 35,000  Level FlightAware ADS-B (MMUN / CUN)
12:39AM 20.7750 -86.4384 129° Southeast 475 547 35,000  Level FlightAware ADS-B (MMUN / CUN)
12:40AM 20.7338 -86.3857 129° Southeast 475 547 35,000  Level FlightAware ADS-B (MMUN / CUN)
12:40AM 20.6759 -86.3041 126° Southeast 478 550 35,000  Level FlightAware ADS-B (MMUN / CUN)
12:41AM 20.6433 -86.2575 126° Southeast 479 551 35,000  Level FlightAware ADS-B (MMUN / CUN)
12:41AM 20.5978 -86.1919 126° Southeast 479 551 35,000  Level FlightAware ADS-B (MMUN / CUN)
12:42AM 20.5573 -86.1339 126° Southeast 479 551 35,000  Level FlightAware ADS-B (MMUN / CUN)
12:42AM 20.5189 -86.0811 133° Southeast 479 551 35,000  Level FlightAware ADS-B (MMUN / CUN)
12:43AM 20.4618 -86.0171 126° Southeast 477 549 35,000  Level FlightAware ADS-B (MMUN / CUN)
12:44AM 20.4113 -85.9372 123° Southeast 477 549 35,000  Level FlightAware ADS-B (MMUN / CUN)
12:44AM 20.3970 -85.9143 123° Southeast 476 548 35,000  Level FlightAware ADS-B (MMUN / CUN)
12:44AM 20.3470 -85.8346 123° Southeast 476 548 35,000  Level FlightAware ADS-B (MMUN / CUN)
12:45AM 20.3065 -85.7699 123° Southeast 476 548 35,000  Level FlightAware ADS-B (MMUN / CUN)
12:46AM 20.2284 -85.6443 123° Southeast 476 548 35,000  Level FlightAware ADS-B (MMUN / CUN)
12:47AM 20.2046 -85.6057 123° Southeast 477 549 35,000  Level FlightAware ADS-B (MMUN / CUN)
12:47AM 20.1578 -85.5299 123° Southeast 477 549 35,000  Level FlightAware ADS-B (MMUN / CUN)
12:48AM 20.1214 -85.4711 123° Southeast 476 548 35,000  Level FlightAware ADS-B (MMUN / CUN)
12:48AM 20.0832 -85.4097 123° Southeast 476 548 35,000  Level FlightAware ADS-B (MMUN / CUN)
12:48AM 20.0684 -85.3861 123° Southeast 475 547 35,000  Level FlightAware ADS-B (MMUN / CUN)
12:50AM 19.9737 -85.2320 123° Southeast 475 547 35,000  Level FlightAware ADS-B (MMUN / CUN)
12:50AM 19.9340 -85.1665 122° Southeast 473 544 35,000  Level FlightAware ADS-B (MMUN / CUN)
12:50AM 19.9257 -85.1529 122° Southeast 473 544 35,000  Level FlightAware ADS-B (MMUN / CUN)
12:52AM 19.8180 -84.9972 130° Southeast 474 545 35,000  Level FlightAware ADS-B (MMUN / CUN)
12:52AM 19.8125 -84.9903 130° Southeast 474 545 35,000  Level FlightAware ADS-B (MMUN / CUN)
12:53AM 19.6964 -84.8552 132° Southeast 474 545 35,000  Level FlightAware ADS-B (MMUN / CUN)
12:56AM 19.4612 -84.6249 137° Southeast  Level Estimated
12:57AM 19.3645 -84.5304 137° Southeast  Level Estimated
12:58AM 19.2676 -84.4361 137° Southeast  Level Estimated
12:59AM 19.1708 -84.3419 137° Southeast  Level Estimated
01:00AM 19.0739 -84.2477 137° Southeast  Level Estimated
01:01AM 18.9769 -84.1537 137° Southeast  Level Estimated
01:02AM 18.8799 -84.0598 138° Southeast  Level Estimated
01:03AM 18.7829 -83.9660 138° Southeast  Level Estimated
01:04AM 18.6858 -83.8724 138° Southeast  Level Estimated
01:05AM 18.5887 -83.7788 138° Southeast  Level Estimated
01:06AM 18.4915 -83.6853 138° Southeast  Level Estimated
01:07AM 18.3943 -83.5919 138° Southeast  Level Estimated
01:08AM 18.2970 -83.4987 138° Southeast  Level Estimated
01:09AM 18.1997 -83.4055 138° Southeast  Level Estimated
01:10AM 18.1023 -83.3125 138° Southeast  Level Estimated
01:11AM 18.0049 -83.2195 138° Southeast  Level Estimated
01:12AM 17.9074 -83.1267 138° Southeast  Level Estimated
01:13AM 17.8099 -83.0339 138° Southeast  Level Estimated
01:14AM 17.7124 -82.9413 138° Southeast  Level Estimated
01:15AM 17.6148 -82.8487 138° Southeast  Level Estimated
01:16AM 17.5172 -82.7563 138° Southeast  Level Estimated
01:17AM 17.4195 -82.6640 138° Southeast  Level Estimated
01:18AM 17.3218 -82.5717 138° Southeast  Level Estimated
01:19AM 17.2241 -82.4796 138° Southeast  Level Estimated
01:20AM 17.1263 -82.3875 138° Southeast  Level Estimated
01:21AM 17.0284 -82.2956 138° Southeast  Level Estimated
01:22AM 16.9305 -82.2037 138° Southeast  Level Estimated
01:23AM 16.8326 -82.1120 138° Southeast  Level Estimated
01:24AM 16.7347 -82.0203 138° Southeast  Level Estimated
01:25AM 16.6367 -81.9287 138° Southeast  Level Estimated
01:26AM 16.5386 -81.8373 138° Southeast  Level Estimated
01:27AM 16.4405 -81.7459 138° Southeast  Level Estimated
01:28AM 16.3424 -81.6546 138° Southeast  Level Estimated
01:29AM 16.2443 -81.5634 138° Southeast  Level Estimated
01:30AM 16.1461 -81.4723 138° Southeast  Level Estimated
01:31AM 16.0478 -81.3813 138° Southeast  Level Estimated
01:32AM 15.9495 -81.2903 138° Southeast  Level Estimated
01:33AM 15.8512 -81.1995 138° Southeast  Level Estimated
01:34AM 15.7529 -81.1087 138° Southeast  Level Estimated
01:35AM 15.6545 -81.0181 138° Southeast  Level Estimated
01:36AM 15.5561 -80.9275 138° Southeast  Level Estimated
01:37AM 15.4576 -80.8370 138° Southeast  Level Estimated
01:38AM 15.3591 -80.7466 138° Southeast  Level Estimated
01:39AM 15.2606 -80.6563 139° Southeast  Level Estimated
01:40AM 15.1620 -80.5661 139° Southeast  Level Estimated
01:41AM 15.0634 -80.4759 139° Southeast  Level Estimated
01:42AM 14.9648 -80.3859 139° Southeast  Level Estimated
01:43AM 14.8661 -80.2959 139° Southeast  Level Estimated
01:44AM 14.7674 -80.2060 139° Southeast  Level Estimated
01:45AM 14.6686 -80.1162 139° Southeast  Level Estimated
01:46AM 14.5698 -80.0264 139° Southeast  Level Estimated
01:47AM 14.4710 -79.9368 139° Southeast  Level Estimated
01:48AM 14.3722 -79.8472 139° Southeast  Level Estimated
01:49AM 14.2733 -79.7577 139° Southeast  Level Estimated
01:50AM 14.1743 -79.6683 139° Southeast  Level Estimated
01:51AM 14.0754 -79.5789 139° Southeast  Level Estimated
01:52AM 13.9764 -79.4897 139° Southeast  Level Estimated
01:53AM 13.8774 -79.4005 139° Southeast  Level Estimated
01:54AM 13.7783 -79.3114 139° Southeast  Level Estimated
01:55AM 13.6793 -79.2223 139° Southeast  Level Estimated
01:56AM 13.5801 -79.1334 139° Southeast  Level Estimated
01:57AM 13.4810 -79.0445 139° Southeast  Level Estimated
01:58AM 13.3818 -78.9557 139° Southeast  Level Estimated
01:59AM 13.2826 -78.8669 139° Southeast  Level Estimated
02:00AM 13.1834 -78.7783 139° Southeast  Level Estimated
02:01AM 13.0841 -78.6897 139° Southeast  Level Estimated
02:02AM 12.9848 -78.6012 139° Southeast  Level Estimated
02:03AM 12.8855 -78.5127 139° Southeast  Level Estimated
02:04AM 12.7861 -78.4243 139° Southeast  Level Estimated
02:05AM 12.6867 -78.3360 139° Southeast  Level Estimated
02:06AM 12.5873 -78.2478 139° Southeast  Level Estimated
02:07AM 12.4879 -78.1596 139° Southeast  Level Estimated
02:08AM 12.3884 -78.0715 139° Southeast  Level Estimated
02:09AM 12.2889 -77.9834 139° Southeast  Level Estimated
02:10AM 12.1894 -77.8955 139° Southeast  Level Estimated
02:11AM 12.0898 -77.8076 139° Southeast  Level Estimated
02:12AM 11.9902 -77.7197 139° Southeast  Level Estimated
02:13AM 11.8906 -77.6319 139° Southeast  Level Estimated
02:14AM 11.7910 -77.5442 139° Southeast  Level Estimated
02:15AM 11.6913 -77.4566 139° Southeast  Level Estimated
02:16AM 11.5916 -77.3690 139° Southeast  Level Estimated
02:17AM 11.4919 -77.2815 139° Southeast  Level Estimated
02:18AM 11.3921 -77.1940 139° Southeast  Level Estimated
02:19AM 11.2922 -77.1065 139° Southeast  Level Estimated
02:20AM 11.1922 -77.0190 139° Southeast  Level Estimated
02:21AM 11.0922 -76.9315 139° Southeast  Level Estimated
02:22AM 10.9922 -76.8441 139° Southeast  Level Estimated
02:23AM 10.8922 -76.7568 139° Southeast  Level Estimated
02:24AM 10.7921 -76.6696 139° Southeast  Level Estimated
02:25AM 10.6920 -76.5824 139° Southeast  Level Estimated
02:26AM 10.5919 -76.4952 139° Southeast  Level Estimated
02:27AM 10.4917 -76.4081 139° Southeast  Level Estimated
02:28AM 10.3915 -76.3211 139° Southeast  Level Estimated
02:29AM 10.2914 -76.2342 139° Southeast  Level Estimated
02:30AM 10.1911 -76.1472 140° Southeast  Level Estimated
02:31AM 10.0909 -76.0604 140° Southeast  Level Estimated
02:32AM 9.9906 -75.9736 140° Southeast  Level Estimated
02:33AM 9.8904 -75.8868 140° Southeast  Level Estimated
02:34AM 9.7900 -75.8001 140° Southeast  Level Estimated
02:35AM 9.6897 -75.7135 140° Southeast  Level Estimated
02:36AM 9.5894 -75.6269 140° Southeast  Level Estimated
02:37AM 9.4890 -75.5403 140° Southeast  Level Estimated
02:38AM 9.3886 -75.4538 140° Southeast  Level Estimated
02:39AM 9.2882 -75.3674 140° Southeast  Level Estimated
02:40AM 9.1877 -75.2810 140° Southeast  Level Estimated
02:41AM 9.0873 -75.1946 140° Southeast  Level Estimated
02:42AM 8.9868 -75.1083 140° Southeast  Level Estimated
02:43AM 8.8863 -75.0221 140° Southeast  Level Estimated
02:44AM 8.7858 -74.9359 140° Southeast  Level Estimated
02:44AM 8.2535 -74.9194 137° Southeast 479 551 37,000  Level FlightAware ADS-B (SKBG / BGA)
02:45AM 8.6853 -74.8497 140° Southeast  Level Estimated
02:45AM 8.2079 -74.8778 137° Southeast 481 554 37,000  Level FlightAware ADS-B (SKBG / BGA)
02:45AM 8.1670 -74.8404 137° Southeast 482 555 37,000  Level FlightAware ADS-B (SKBG / BGA)
02:46AM 8.1173 -74.7950 137° Southeast 483 556 37,000  Level FlightAware ADS-B (SKBG / BGA)
02:46AM 8.0540 -74.7373 137° Southeast 483 556 37,000  Level FlightAware ADS-B (SKBG / BGA)
02:47AM 8.0164 -74.7030 137° Southeast 484 557 37,000  Level FlightAware ADS-B (SKBG / BGA)
02:47AM 7.9695 -74.6602 137° Southeast 484 557 37,000  Level FlightAware ADS-B (SKBG / BGA)
02:48AM 7.9084 -74.6046 137° Southeast 485 558 37,000  Level FlightAware ADS-B (SKBG / BGA)
02:48AM 7.8802 -74.5789 137° Southeast 486 559 37,000  Level FlightAware ADS-B (SKBG / BGA)
02:49AM 7.8127 -74.5174 137° Southeast 487 560 37,000  Level FlightAware ADS-B (SKBG / BGA)
02:49AM 7.7615 -74.4708 137° Southeast 488 562 37,000  Level FlightAware ADS-B (SKBG / BGA)
02:50AM 7.7169 -74.4302 137° Southeast 489 563 37,000  Level FlightAware ADS-B (SKBG / BGA)
02:50AM 7.6612 -74.3796 137° Southeast 491 565 37,000  Level FlightAware ADS-B (SKBG / BGA)
02:51AM 7.6135 -74.3362 137° Southeast 492 566 37,000  Level FlightAware ADS-B (SKBG / BGA)
02:51AM 7.5575 -74.2853 137° Southeast 494 568 37,000  Level FlightAware ADS-B (SKBG / BGA)
02:52AM 7.5123 -74.2443 137° Southeast 494 568 37,000  Level FlightAware ADS-B (SKBG / BGA)
02:52AM 7.4510 -74.1886 137° Southeast 495 570 37,000  Level FlightAware ADS-B (SKBG / BGA)
02:53AM 7.4066 -74.1483 137° Southeast 495 570 37,000  Level FlightAware ADS-B (SKBG / BGA)
02:53AM 7.3581 -74.1043 137° Southeast 497 572 37,000  Level FlightAware ADS-B (SKBG / BGA)
02:54AM 7.2990 -74.0506 137° Southeast 499 574 37,000  Level FlightAware ADS-B (SKBG / BGA)
02:54AM 7.2427 -73.9995 137° Southeast 499 574 37,000  Level FlightAware ADS-B (SKBG / BGA)
02:55AM 7.1935 -73.9550 137° Southeast 499 574 37,000  Level FlightAware ADS-B (SKBG / BGA)
02:55AM 7.1419 -73.9082 137° Southeast 496 571 37,000  Level FlightAware ADS-B (SKBG / BGA)
02:56AM 7.0926 -73.8635 137° Southeast 494 568 37,000  Level FlightAware ADS-B (SKBG / BGA)
02:56AM 7.0333 -73.8133 143° Southeast 493 567 37,000  Level FlightAware ADS-B (SKBG / BGA)
02:57AM 6.9798 -73.7792 150° Southeast 493 567 37,000  Level FlightAware ADS-B (SKBG / BGA)
02:57AM 6.9104 -73.7409 151° Southeast 493 567 37,000  Level FlightAware ADS-B (SKBG / BGA)
02:58AM 6.8691 -73.7187 151° Southeast 491 565 37,000  Level FlightAware ADS-B (SKBG / BGA)
03:00AM 6.6684 -73.6097 152° Southeast  Level FlightAware Approximate
03:01AM 6.5527 -73.5469 152° Southeast  Level FlightAware Approximate
03:02AM 6.4369 -73.4841 152° Southeast  Level FlightAware Approximate
03:03AM 6.3211 -73.4213 152° Southeast  Level FlightAware Approximate
03:04AM 6.2053 -73.3586 152° Southeast  Level FlightAware Approximate
03:05AM 6.0895 -73.2959 152° Southeast  Level FlightAware Approximate
03:06AM 5.9737 -73.2332 152° Southeast  Level FlightAware Approximate
03:07AM 5.8579 -73.1706 152° Southeast  Level FlightAware Approximate
03:08AM 5.7421 -73.1079 152° Southeast  Level FlightAware Approximate
03:09AM 5.6262 -73.0453 152° Southeast  Level FlightAware Approximate
03:10AM 5.5104 -72.9828 152° Southeast  Level FlightAware Approximate
03:11AM 5.3945 -72.9202 152° Southeast  Level FlightAware Approximate
03:12AM 5.2787 -72.8577 152° Southeast  Level FlightAware Approximate
03:13AM 5.1628 -72.7952 152° Southeast  Level FlightAware Approximate
03:14AM 5.0470 -72.7327 152° Southeast  Level FlightAware Approximate
03:15AM 4.9311 -72.6702 152° Southeast  Level FlightAware Approximate
03:16AM 4.8152 -72.6078 152° Southeast  Level FlightAware Approximate
03:17AM 4.6993 -72.5454 152° Southeast  Level FlightAware Approximate
03:18AM 4.5834 -72.4830 152° Southeast  Level FlightAware Approximate
03:19AM 4.4675 -72.4206 152° Southeast  Level FlightAware Approximate
03:20AM 4.3517 -72.3582 152° Southeast  Level FlightAware Approximate
03:21AM 4.2358 -72.2959 152° Southeast  Level FlightAware Approximate
03:22AM 4.1198 -72.2336 152° Southeast  Level FlightAware Approximate
03:23AM 4.0039 -72.1713 152° Southeast  Level FlightAware Approximate
03:24AM 3.8915 -72.1037 145° Southeast  Level FlightAware Approximate
03:25AM 3.7843 -72.0278 145° Southeast  Level FlightAware Approximate
03:26AM 3.6771 -71.9520 145° Southeast  Level FlightAware Approximate
03:27AM 3.5698 -71.8761 145° Southeast  Level FlightAware Approximate
03:28AM 3.4625 -71.8002 145° Southeast  Level FlightAware Approximate
03:29AM 3.3553 -71.7244 145° Southeast  Level FlightAware Approximate
03:30AM 3.2480 -71.6486 145° Southeast  Level FlightAware Approximate
03:31AM 3.1404 -71.5732 145° Southeast  Level FlightAware Approximate
03:32AM 3.0328 -71.4979 145° Southeast  Level FlightAware Approximate
03:33AM 2.9252 -71.4226 145° Southeast  Level FlightAware Approximate
03:34AM 2.8176 -71.3473 145° Southeast  Level FlightAware Approximate
03:35AM 2.7100 -71.2719 145° Southeast  Level FlightAware Approximate
03:36AM 2.6026 -71.1963 145° Southeast  Level FlightAware Approximate
03:37AM 2.4952 -71.1207 145° Southeast  Level FlightAware Approximate
03:38AM 2.3879 -71.0451 145° Southeast  Level FlightAware Approximate
03:39AM 2.2805 -70.9695 145° Southeast  Level FlightAware Approximate
03:40AM 2.1730 -70.8939 145° Southeast  Level FlightAware Approximate
03:41AM 2.0656 -70.8184 145° Southeast  Level FlightAware Approximate
03:42AM 1.9582 -70.7428 145° Southeast  Level FlightAware Approximate
03:43AM 1.8508 -70.6673 145° Southeast  Level FlightAware Approximate
03:44AM 1.7434 -70.5918 145° Southeast  Level FlightAware Approximate
03:45AM 1.6360 -70.5163 145° Southeast  Level FlightAware Approximate
03:46AM 1.5285 -70.4408 145° Southeast  Level FlightAware Approximate
03:47AM 1.4211 -70.3653 145° Southeast  Level FlightAware Approximate
03:48AM 1.3137 -70.2898 145° Southeast  Level FlightAware Approximate
03:49AM 1.2086 -70.2113 138° Southeast  Level FlightAware Approximate
03:50AM 1.1105 -70.1240 138° Southeast  Level FlightAware Approximate
03:51AM 1.0125 -70.0367 138° Southeast  Level FlightAware Approximate
03:52AM 0.9144 -69.9494 138° Southeast  Level FlightAware Approximate
03:53AM 0.8163 -69.8621 138° Southeast  Level FlightAware Approximate
03:54AM 0.7183 -69.7748 138° Southeast  Level FlightAware Approximate
03:55AM 0.6202 -69.6875 138° Southeast  Level FlightAware Approximate
03:56AM 0.5221 -69.6002 138° Southeast  Level FlightAware Approximate
03:57AM 0.4241 -69.5129 138° Southeast  Level FlightAware Approximate
03:58AM 0.3260 -69.4256 138° Southeast  Level FlightAware Approximate
03:59AM 0.2279 -69.3383 138° Southeast  Level FlightAware Approximate
04:00AM 0.1298 -69.2511 138° Southeast  Level FlightAware Approximate
04:01AM 0.0317 -69.1638 138° Southeast  Level FlightAware Approximate
04:02AM -0.0663 -69.0765 138° Southeast  Level FlightAware Approximate
04:03AM -0.1644 -68.9892 138° Southeast  Level FlightAware Approximate
04:04AM -0.2625 -68.9019 138° Southeast  Level FlightAware Approximate
04:05AM -0.3606 -68.8147 138° Southeast  Level FlightAware Approximate
04:06AM -0.4586 -68.7274 138° Southeast  Level FlightAware Approximate
04:07AM -0.5567 -68.6401 138° Southeast  Level FlightAware Approximate
04:08AM -0.6548 -68.5528 138° Southeast  Level FlightAware Approximate
04:09AM -0.7529 -68.4655 138° Southeast  Level FlightAware Approximate
04:10AM -0.8509 -68.3782 138° Southeast  Level FlightAware Approximate
04:11AM -0.9490 -68.2909 138° Southeast  Level FlightAware Approximate
04:12AM -1.0471 -68.2036 138° Southeast  Level FlightAware Approximate
04:13AM -1.1451 -68.1163 138° Southeast  Level FlightAware Approximate
04:14AM -1.2432 -68.0290 138° Southeast  Level FlightAware Approximate
04:15AM -1.3412 -67.9416 138° Southeast  Level FlightAware Approximate
04:16AM -1.4393 -67.8543 138° Southeast  Level FlightAware Approximate
04:17AM -1.5374 -67.7670 138° Southeast  Level FlightAware Approximate
04:18AM -1.6354 -67.6796 138° Southeast  Level FlightAware Approximate
04:19AM -1.7334 -67.5923 138° Southeast  Level FlightAware Approximate
04:20AM -1.8315 -67.5049 138° Southeast  Level FlightAware Approximate
04:21AM -1.9295 -67.4175 138° Southeast  Level FlightAware Approximate
04:22AM -2.0275 -67.3301 138° Southeast  Level FlightAware Approximate
04:23AM -2.1256 -67.2427 138° Southeast  Level FlightAware Approximate
04:24AM -2.2236 -67.1553 138° Southeast  Level FlightAware Approximate
04:25AM -2.3216 -67.0679 138° Southeast  Level FlightAware Approximate
04:26AM -2.4196 -66.9805 138° Southeast  Level FlightAware Approximate
04:27AM -2.5176 -66.8931 138° Southeast  Level FlightAware Approximate
04:28AM -2.6156 -66.8056 138° Southeast  Level FlightAware Approximate
04:29AM -2.7136 -66.7181 138° Southeast  Level FlightAware Approximate
04:30AM -2.8116 -66.6306 138° Southeast  Level FlightAware Approximate
04:31AM -2.9096 -66.5431 138° Southeast  Level FlightAware Approximate
04:32AM -3.0076 -66.4556 138° Southeast  Level FlightAware Approximate
04:33AM -3.1055 -66.3681 138° Southeast  Level FlightAware Approximate
04:34AM -3.2035 -66.2805 138° Southeast  Level FlightAware Approximate
04:35AM -3.3014 -66.1930 138° Southeast  Level FlightAware Approximate
04:36AM -3.3994 -66.1054 138° Southeast  Level FlightAware Approximate
04:37AM -3.4973 -66.0178 138° Southeast  Level FlightAware Approximate
04:38AM -3.5952 -65.9302 138° Southeast  Level FlightAware Approximate
04:39AM -3.6932 -65.8426 138° Southeast  Level FlightAware Approximate
04:40AM -3.7911 -65.7549 138° Southeast  Level FlightAware Approximate
04:41AM -3.8890 -65.6672 138° Southeast  Level FlightAware Approximate
04:42AM -3.9869 -65.5795 138° Southeast  Level FlightAware Approximate
04:43AM -4.0848 -65.4918 138° Southeast  Level FlightAware Approximate
04:44AM -4.1826 -65.4041 138° Southeast  Level FlightAware Approximate
04:45AM -4.2805 -65.3163 138° Southeast  Level FlightAware Approximate
04:46AM -4.3783 -65.2286 138° Southeast  Level FlightAware Approximate
04:47AM -4.4762 -65.1407 138° Southeast  Level FlightAware Approximate
04:48AM -4.5740 -65.0529 138° Southeast  Level FlightAware Approximate
04:49AM -4.6719 -64.9651 138° Southeast  Level FlightAware Approximate
04:50AM -4.7697 -64.8772 138° Southeast  Level FlightAware Approximate
04:51AM -4.8675 -64.7893 138° Southeast  Level FlightAware Approximate
04:52AM -4.9653 -64.7014 138° Southeast  Level FlightAware Approximate
04:53AM -5.0630 -64.6134 138° Southeast  Level FlightAware Approximate
04:54AM -5.1608 -64.5254 138° Southeast  Level FlightAware Approximate
04:55AM -5.2586 -64.4374 138° Southeast  Level FlightAware Approximate
04:56AM -5.3563 -64.3494 138° Southeast  Level FlightAware Approximate
04:57AM -5.4540 -64.2613 138° Southeast  Level FlightAware Approximate
04:58AM -5.5517 -64.1732 138° Southeast  Level FlightAware Approximate
04:59AM -5.6494 -64.0851 138° Southeast  Level FlightAware Approximate
05:00AM -5.7471 -63.9970 138° Southeast  Level FlightAware Approximate
05:01AM -5.8448 -63.9088 138° Southeast  Level FlightAware Approximate
05:02AM -5.9425 -63.8206 138° Southeast  Level FlightAware Approximate
05:03AM -6.0401 -63.7323 138° Southeast  Level FlightAware Approximate
05:04AM -6.1378 -63.6441 138° Southeast  Level FlightAware Approximate
05:05AM -6.2354 -63.5558 138° Southeast  Level FlightAware Approximate
05:06AM -6.3330 -63.4674 138° Southeast  Level FlightAware Approximate
05:07AM -6.4306 -63.3791 138° Southeast  Level FlightAware Approximate
05:08AM -6.5281 -63.2906 138° Southeast  Level FlightAware Approximate
05:09AM -6.6257 -63.2022 138° Southeast  Level FlightAware Approximate
05:10AM -6.7232 -63.1137 138° Southeast  Level FlightAware Approximate
05:11AM -6.8208 -63.0252 138° Southeast  Level FlightAware Approximate
05:12AM -6.9183 -62.9367 138° Southeast  Level FlightAware Approximate
05:13AM -7.0158 -62.8481 138° Southeast  Level FlightAware Approximate
05:14AM -7.1133 -62.7595 138° Southeast  Level FlightAware Approximate
05:15AM -7.2107 -62.6708 138° Southeast  Level FlightAware Approximate
05:16AM -7.3082 -62.5821 138° Southeast  Level FlightAware Approximate
05:17AM -7.4056 -62.4934 138° Southeast  Level FlightAware Approximate
05:18AM -7.5030 -62.4046 138° Southeast  Level FlightAware Approximate
05:19AM -7.6004 -62.3158 138° Southeast  Level FlightAware Approximate
05:20AM -7.6979 -62.2268 138° Southeast  Level FlightAware Approximate
05:21AM -7.7955 -62.1377 138° Southeast  Level FlightAware Approximate
05:22AM -7.8930 -62.0486 138° Southeast  Level FlightAware Approximate
05:23AM -7.9905 -61.9595 138° Southeast  Level FlightAware Approximate
05:24AM -8.0879 -61.8703 138° Southeast  Level FlightAware Approximate
05:25AM -8.1854 -61.7811 138° Southeast  Level FlightAware Approximate
05:26AM -8.2828 -61.6918 138° Southeast  Level FlightAware Approximate
05:27AM -8.3802 -61.6025 138° Southeast  Level FlightAware Approximate
05:28AM -8.4776 -61.5132 138° Southeast  Level FlightAware Approximate
05:29AM -8.5750 -61.4238 138° Southeast  Level FlightAware Approximate
05:30AM -8.6724 -61.3343 138° Southeast  Level FlightAware Approximate
05:31AM -8.7697 -61.2448 138° Southeast  Level FlightAware Approximate
05:32AM -8.8670 -61.1553 138° Southeast  Level FlightAware Approximate
05:33AM -8.9643 -61.0657 138° Southeast  Level FlightAware Approximate
05:34AM -9.0616 -60.9761 138° Southeast  Level FlightAware Approximate
05:35AM -9.1588 -60.8864 138° Southeast  Level FlightAware Approximate
05:36AM -9.2560 -60.7966 138° Southeast  Level FlightAware Approximate
05:37AM -9.3532 -60.7069 138° Southeast  Level FlightAware Approximate
05:38AM -9.4504 -60.6170 138° Southeast  Level FlightAware Approximate
05:39AM -9.5476 -60.5271 138° Southeast  Level FlightAware Approximate
05:40AM -9.6447 -60.4372 138° Southeast  Level FlightAware Approximate
05:41AM -9.7418 -60.3472 138° Southeast  Level FlightAware Approximate
05:42AM -9.8389 -60.2572 138° Southeast  Level FlightAware Approximate
05:43AM -9.9359 -60.1671 138° Southeast  Level FlightAware Approximate
05:44AM -10.0330 -60.0770 138° Southeast  Level FlightAware Approximate
05:45AM -10.1300 -59.9868 138° Southeast  Level FlightAware Approximate
05:46AM -10.2270 -59.8965 138° Southeast  Level FlightAware Approximate
05:47AM -10.3239 -59.8062 138° Southeast  Level FlightAware Approximate
05:48AM -10.4209 -59.7158 137° Southeast  Level FlightAware Approximate
05:49AM -10.5178 -59.6254 137° Southeast  Level FlightAware Approximate
05:50AM -10.6147 -59.5349 137° Southeast  Level FlightAware Approximate
05:51AM -10.7115 -59.4444 137° Southeast  Level FlightAware Approximate
05:52AM -10.8084 -59.3538 137° Southeast  Level FlightAware Approximate
05:53AM -10.9052 -59.2632 137° Southeast  Level FlightAware Approximate
05:54AM -11.0021 -59.1723 137° Southeast  Level FlightAware Approximate
05:55AM -11.0991 -59.0814 137° Southeast  Level FlightAware Approximate
05:56AM -11.1960 -58.9904 137° Southeast  Level FlightAware Approximate
05:56AM -11.5536 -57.3539 132° Southeast 510 587 37,000  Level FlightAware ADS-B
06:01AM -12.0139 -56.8273 132° Southeast 510 587 37,000  Level FlightAware ADS-B
06:01AM -12.0734 -56.7589 132° Southeast 510 587 37,000  Level FlightAware ADS-B
06:02AM -12.1310 -56.6928 132° Southeast 510 587 37,000  Level FlightAware ADS-B
06:03AM -12.2043 -56.6084 131° Southeast 511 588 37,000  Level FlightAware ADS-B
06:03AM -12.2662 -56.5372 132° Southeast 512 589 37,000  Level FlightAware ADS-B
06:04AM -12.3303 -56.4634 131° Southeast 512 589 37,000  Level FlightAware ADS-B
06:05AM -12.3929 -56.3913 131° Southeast 512 589 37,000  Level FlightAware ADS-B
06:05AM -12.4493 -56.3262 131° Southeast 512 589 37,000  Level FlightAware ADS-B
06:06AM -12.5173 -56.2484 133° Southeast 512 589 37,000  Level FlightAware ADS-B
06:06AM -12.5824 -56.1808 135° Southeast 511 588 37,000  Level FlightAware ADS-B
06:07AM -12.6534 -56.1103 136° Southeast 511 588 37,000  Level FlightAware ADS-B
06:08AM -12.7215 -56.0428 136° Southeast 511 588 37,000  Level FlightAware ADS-B
06:09AM -12.7568 -56.0078 136° Southeast 510 587 37,000  Level FlightAware ADS-B
06:09AM -12.8626 -55.9026 136° Southeast 511 588 37,000  Level FlightAware ADS-B (SBCY / CGB)
06:10AM -12.9373 -55.8284 136° Southeast 511 588 37,000  Level FlightAware ADS-B (SBCY / CGB)
06:11AM -13.0063 -55.7597 136° Southeast 511 588 37,000  Level FlightAware ADS-B (SBCY / CGB)
06:11AM -13.0738 -55.6925 136° Southeast 513 590 37,000  Level FlightAware ADS-B (SBCY / CGB)
06:12AM -13.1386 -55.6279 136° Southeast 513 590 37,000  Level FlightAware ADS-B (SBCY / CGB)
06:13AM -13.2100 -55.5567 136° Southeast 513 590 37,000  Level FlightAware ADS-B (SBCY / CGB)
06:13AM -13.2784 -55.4884 136° Southeast 512 589 37,000 120 Level FlightAware ADS-B (SBCY / CGB)
06:14AM -13.3435 -55.4234 136° Southeast 513 590 37,200 720 Climbing FlightAware ADS-B (SBCY / CGB)
06:15AM -13.4140 -55.3528 136° Southeast 508 585 38,000 1,020 Climbing FlightAware ADS-B (SBCY / CGB)
06:15AM -13.4785 -55.2883 136° Southeast 506 582 38,600 720 Climbing FlightAware ADS-B (SBCY / CGB)
06:16AM -13.5485 -55.2182 136° Southeast 506 582 39,000 300 Climbing FlightAware ADS-B (SBCY / CGB)
06:17AM -13.6145 -55.1521 136° Southeast 505 581 39,000  Level FlightAware ADS-B (SBCY / CGB)
06:17AM -13.6812 -55.0851 136° Southeast 504 580 39,000  Level FlightAware ADS-B (SBCY / CGB)
06:18AM -13.7489 -55.0171 136° Southeast 504 580 39,000  Level FlightAware ADS-B (SBCY / CGB)
06:19AM -13.8141 -54.9515 136° Southeast 504 580 39,000  Level FlightAware ADS-B (SBCY / CGB)
06:19AM -13.8793 -54.8859 136° Southeast 504 580 39,000  Level FlightAware ADS-B (SBCY / CGB)
06:20AM -13.9459 -54.8189 136° Southeast 504 580 39,000  Level FlightAware ADS-B (SBCY / CGB)
06:21AM -14.0152 -54.7492 135° Southeast 503 579 39,000  Level FlightAware ADS-B (SBCY / CGB)
06:21AM -14.0800 -54.6837 135° Southeast 503 579 39,000  Level FlightAware ADS-B (SBCY / CGB)
06:22AM -14.1404 -54.6228 135° Southeast 503 579 39,000  Level FlightAware ADS-B (SBCY / CGB)
06:23AM -14.2137 -54.5487 135° Southeast 502 578 39,000  Level FlightAware ADS-B (SBCY / CGB)
06:25AM -14.4060 -54.3911 142° Southeast  Level Estimated
06:26AM -14.5089 -54.3065 142° Southeast  Level Estimated
06:27AM -14.6118 -54.2219 141° Southeast  Level Estimated
06:28AM -14.7147 -54.1372 141° Southeast  Level Estimated
06:29AM -14.8175 -54.0524 141° Southeast  Level Estimated
06:30AM -14.9204 -53.9676 141° Southeast  Level Estimated
06:31AM -15.0231 -53.8826 141° Southeast  Level Estimated
06:32AM -15.1259 -53.7976 141° Southeast  Level Estimated
06:33AM -15.2286 -53.7125 141° Southeast  Level Estimated
06:34AM -15.3313 -53.6273 141° Southeast  Level Estimated
06:35AM -15.4340 -53.5420 141° Southeast  Level Estimated
06:36AM -15.5366 -53.4567 141° Southeast  Level Estimated
06:37AM -15.6392 -53.3713 141° Southeast  Level Estimated
06:38AM -15.7417 -53.2857 141° Southeast  Level Estimated
06:39AM -15.8442 -53.2001 141° Southeast  Level Estimated
06:40AM -15.9467 -53.1144 141° Southeast  Level Estimated
06:41AM -16.0492 -53.0286 141° Southeast  Level Estimated
06:42AM -16.1516 -52.9427 141° Southeast  Level Estimated
06:43AM -16.2540 -52.8568 141° Southeast  Level Estimated
06:44AM -16.3564 -52.7707 141° Southeast  Level Estimated
06:45AM -16.4587 -52.6846 141° Southeast  Level Estimated
06:46AM -16.5610 -52.5983 141° Southeast  Level Estimated
06:47AM -16.6632 -52.5120 141° Southeast  Level Estimated
06:48AM -16.7654 -52.4256 141° Southeast  Level Estimated
06:49AM -16.8676 -52.3391 141° Southeast  Level Estimated
06:50AM -16.9697 -52.2525 141° Southeast  Level Estimated
06:51AM -17.0718 -52.1658 141° Southeast  Level Estimated
06:52AM -17.1739 -52.0790 141° Southeast  Level Estimated
06:53AM -17.2759 -51.9921 141° Southeast  Level Estimated
06:54AM -17.3779 -51.9051 141° Southeast  Level Estimated
06:55AM -17.4799 -51.8180 141° Southeast  Level Estimated
06:56AM -17.5818 -51.7308 141° Southeast  Level Estimated
06:57AM -17.6837 -51.6436 141° Southeast  Level Estimated
06:58AM -17.7855 -51.5562 141° Southeast  Level Estimated
06:59AM -17.8873 -51.4687 141° Southeast  Level Estimated
07:00AM -17.9891 -51.3811 141° Southeast  Level Estimated
07:01AM -18.0908 -51.2934 141° Southeast  Level Estimated
07:02AM -18.1925 -51.2057 141° Southeast  Level Estimated
07:03AM -18.2941 -51.1178 141° Southeast  Level Estimated
07:04AM -18.3957 -51.0298 141° Southeast  Level Estimated
07:05AM -18.4973 -50.9417 141° Southeast  Level Estimated
07:06AM -18.5988 -50.8535 141° Southeast  Level Estimated
07:07AM -18.7003 -50.7652 141° Southeast  Level Estimated
07:08AM -18.8017 -50.6768 140° Southeast  Level Estimated
07:09AM -18.9031 -50.5883 140° Southeast  Level Estimated
07:10AM -19.0045 -50.4996 140° Southeast  Level Estimated
07:11AM -19.1058 -50.4109 140° Southeast  Level Estimated
07:12AM -19.2071 -50.3221 140° Southeast  Level Estimated
07:13AM -19.3083 -50.2331 140° Southeast  Level Estimated
07:14AM -19.4095 -50.1441 140° Southeast  Level Estimated
07:15AM -19.5106 -50.0549 140° Southeast  Level Estimated
07:16AM -19.6117 -49.9656 140° Southeast  Level Estimated
07:17AM -19.7127 -49.8762 140° Southeast  Level Estimated
07:18AM -19.8138 -49.7867 140° Southeast  Level Estimated
07:19AM -19.9147 -49.6971 140° Southeast  Level Estimated
07:20AM -20.0156 -49.6074 140° Southeast  Level Estimated
07:21AM -20.1165 -49.5175 140° Southeast  Level Estimated
07:22AM -20.2238 -49.4365 145° Southeast  Level FlightAware Approximate
07:23AM -20.3311 -49.3554 145° Southeast  Level FlightAware Approximate
07:23AM -19.0692 -47.5446 151° Southeast 495 570 39,000  Level FlightAware ADS-B (SDAM)
07:24AM -19.2117 -47.4690 157° South 489 563 39,000  Level FlightAware ADS-B (SDAM)
07:25AM -19.2809 -47.4406 159° South 487 560 39,000  Level FlightAware ADS-B (SDAM)
07:25AM -19.3925 -47.3990 160° South 485 558 39,000  Level FlightAware ADS-B (SDAM)
07:26AM -19.4545 -47.3766 161° South 486 559 39,000  Level FlightAware ADS-B (SDAM)
07:26AM -19.5207 -47.3528 161° South 486 559 39,000  Level FlightAware ADS-B (SDAM)
07:27AM -19.5802 -47.3315 161° South 485 558 39,000  Level FlightAware ADS-B (SDAM)
07:27AM -19.6486 -47.3069 161° South 485 558 39,000  Level FlightAware ADS-B (SDAM)
07:28AM -19.7114 -47.2843 161° South 485 558 39,000  Level FlightAware ADS-B (SDAM)
07:28AM -19.7702 -47.2631 161° South 485 558 39,000  Level FlightAware ADS-B (SDAM)
07:29AM -19.8373 -47.2388 161° South 485 558 39,000  Level FlightAware ADS-B (SDAM)
07:29AM -19.9034 -47.2148 161° South 484 557 39,000  Level FlightAware ADS-B (SDAM)
07:30AM -19.9677 -47.1915 161° South 484 557 39,000  Level FlightAware ADS-B (SDAM)
07:30AM -20.0310 -47.1686 161° South 483 556 39,000  Level FlightAware ADS-B (SDAM)
07:31AM -20.0935 -47.1459 161° South 483 556 39,000  Level FlightAware ADS-B (SDAM)
07:31AM -20.1586 -47.1222 161° South 483 556 39,000  Level FlightAware ADS-B (SDAM)
07:32AM -20.2218 -47.0992 161° South 483 556 39,000  Level FlightAware ADS-B (SDAM)
07:32AM -20.2854 -47.0760 160° South 483 556 39,000  Level FlightAware ADS-B (SDAM)
07:33AM -20.3479 -47.0532 161° South 483 556 39,000  Level FlightAware ADS-B (SDAM)
07:33AM -20.4121 -47.0298 161° South 483 556 39,000  Level FlightAware ADS-B (SDAM)
07:34AM -20.4766 -47.0063 160° South 483 556 39,000  Level FlightAware ADS-B (SDAM)
07:34AM -20.5400 -46.9831 160° South 483 556 39,000  Level FlightAware ADS-B (SDAM)
07:35AM -20.5873 -46.9658 160° South 484 557 39,000  Level FlightAware ADS-B (SDAM)
07:35AM -20.6651 -46.9372 161° South 485 558 39,000  Level FlightAware ADS-B (SDAM)
07:36AM -20.7295 -46.9136 161° South 485 558 39,000  Level FlightAware ADS-B (SDAM)
07:36AM -20.7951 -46.8896 161° South 485 558 39,000  Level FlightAware ADS-B (SDAM)
07:37AM -20.8591 -46.8662 160° South 485 558 39,000  Level FlightAware ADS-B (SDAM)
07:37AM -20.9228 -46.8427 160° South 485 558 39,000  Level FlightAware ADS-B (SDAM)
07:38AM -20.9855 -46.8197 160° South 486 559 39,000  Level FlightAware ADS-B (SDAM)
07:38AM -21.0494 -46.7961 160° South 486 559 39,000  Level FlightAware ADS-B (SDAM)
07:39AM -21.1147 -46.7720 160° South 486 559 39,000  Level FlightAware ADS-B (SDAM)
07:39AM -21.1769 -46.7491 160° South 487 560 39,000  Level FlightAware ADS-B (SDAM)
07:40AM -21.2423 -46.7250 160° South 486 559 39,000  Level FlightAware ADS-B (SDAM)
07:40AM -21.3069 -46.7011 160° South 486 559 39,000  Level FlightAware ADS-B (SDAM)
07:41AM -21.3709 -46.6775 160° South 486 559 39,000  Level FlightAware ADS-B (SDAM)
07:41AM -21.4335 -46.6543 160° South 486 559 39,000  Level FlightAware ADS-B (SDAM)
07:42AM -21.4978 -46.6304 160° South 486 559 39,000  Level FlightAware ADS-B (SDAM)
07:42AM -21.5622 -46.6066 160° South 486 559 39,000  Level FlightAware ADS-B (SDAM)
07:43AM -21.6255 -46.5830 160° South 486 559 39,000  Level FlightAware ADS-B (SDAM)
07:43AM -21.6900 -46.5591 160° South 487 560 39,000  Level FlightAware ADS-B (SDAM)
07:44AM -21.7531 -46.5355 160° South 487 560 39,000  Level FlightAware ADS-B (SDAM)
07:44AM -21.8173 -46.5116 160° South 487 560 39,000  Level FlightAware ADS-B (SDAM)
07:45AM -21.8818 -46.4877 160° South 487 560 39,000 -420 Level FlightAware ADS-B (SDAM)
07:45AM -21.9456 -46.4639 160° South 483 556 38,600 -1,740 Descending FlightAware ADS-B (SDAM)
07:46AM -22.0094 -46.4401 160° South 485 558 37,300 -2,460 Descending FlightAware ADS-B (SDAM)
07:46AM -22.0730 -46.4163 160° South 484 557 36,100 -2,400 Descending FlightAware ADS-B (SDAM)
07:47AM -22.1367 -46.3925 160° South 482 555 34,900 -2,280 Descending FlightAware ADS-B (SDAM)
07:47AM -22.1996 -46.3689 160° South 473 544 33,900 -2,820 Descending FlightAware ADS-B (SDAM)
07:48AM -22.2601 -46.3462 161° South 464 534 32,100 -4,200 Descending FlightAware ADS-B (SDAM)
07:48AM -22.3201 -46.3238 160° South 445 512 29,700 -3,960 Descending FlightAware ADS-B (SDAM)
07:49AM -22.3795 -46.3017 162° South 441 507 28,100 -2,460 Descending FlightAware ADS-B (SDAM)
07:49AM -22.4393 -46.2896 174° South 430 495 27,200 -1,980 Descending FlightAware ADS-B (SDAM)
07:50AM -22.4969 -46.2868 178° South 424 488 26,200 -2,040 Descending FlightAware ADS-B (SDAM)
07:50AM -22.5565 -46.2861 179° South 418 481 25,200 -1,980 Descending FlightAware ADS-B (SDAM)
07:51AM -22.6240 -46.2854 179° South 411 473 24,100 -1,980 Descending FlightAware ADS-B (SDAM)
07:52AM -22.6804 -46.2847 179° South 406 467 23,100 -2,040 Descending FlightAware ADS-B (SDAM)
07:52AM -22.7364 -46.2839 179° South 400 460 22,100 -1,920 Descending FlightAware ADS-B (SDAM)
07:53AM -22.7919 -46.2829 178° South 394 453 21,200 -900 Descending FlightAware ADS-B (SDAM)
07:53AM -22.8752 -46.2815 179° South 379 436 21,000 -840 Descending FlightAware ADS-B (SBSP / CGH)
07:54AM -22.9278 -46.2806 179° South 379 436 20,200 -1,500 Descending FlightAware ADS-B (SBSP / CGH)
07:54AM -22.9796 -46.2797 179° South 373 429 19,500 -2,160 Descending FlightAware ADS-B (SBSP / CGH)
07:55AM -23.0282 -46.2789 179° South 367 422 18,100 -3,180 Descending FlightAware ADS-B (SBSP / CGH)
07:55AM -23.0829 -46.2781 179° South 361 415 16,400 -3,180 Descending FlightAware ADS-B (SBSP / CGH)
07:56AM -23.1325 -46.2773 179° South 354 407 14,900 -3,000 Descending FlightAware ADS-B (SBSP / CGH)
07:56AM -23.1804 -46.2766 179° South 336 387 13,400 -3,360 Descending FlightAware ADS-B (SBSP / CGH)
07:57AM -23.2283 -46.2762 183° South 340 391 11,500 -3,660 Descending FlightAware ADS-B (SBSP / CGH)
07:57AM -23.2440 -46.2793 197° South 346 398 10,900 -3,000 Descending FlightAware ADS-B (SBSP / CGH)
07:57AM -23.2587 -46.2864 210° Southwest 349 402 10,500 -1,920 Descending FlightAware ADS-B (SBSP / CGH)
07:57AM -23.2714 -46.2967 223° Southwest 346 398 10,300 -600 Descending FlightAware ADS-B (SBSP / CGH)
07:58AM -23.2998 -46.3601 229° Southwest 344 396 10,000 -300 Descending FlightAware ADS-B (SDAM)
07:59AM -23.2797 -46.3070 253° West 282 325 10,000  Level FlightAware ADS-B (SBMT / SAO)
07:59AM -23.3120 -46.4027 229° Southwest 344 396 10,000  Level FlightAware ADS-B (SDAM)
07:59AM -23.3165 -46.4186 227° Southwest 344 396 10,000  Level FlightAware ADS-B (SBSP / CGH)
07:59AM -23.3203 -46.4319 227° Southwest 344 396 10,000  Level FlightAware ADS-B (SBSP / CGH)
07:59AM -23.3266 -46.4537 229° Southwest 344 396 10,000 -240 Level FlightAware ADS-B (SDAM)
07:59AM -23.3290 -46.4618 227° Southwest 344 396 9,900 -1,020 Descending FlightAware ADS-B (SBSP / CGH)
07:59AM -23.3308 -46.4677 227° Southwest 344 396 9,800 -1,380 Descending FlightAware ADS-B (SBSP / CGH)
08:00AM -23.3325 -46.4734 227° Southwest 344 396 9,700 -900 Descending FlightAware ADS-B (SBSP / CGH)
08:00AM -23.3335 -46.4769 253° West 242 278 9,700 -960 Level FlightAware ADS-B (SDAM)
08:00AM -23.3386 -46.4941 253° West 239 275 9,400 -1,200 Descending FlightAware ADS-B (SDAM)
08:00AM -23.3437 -46.5111 252° West 235 270 9,100 -1,080 Descending FlightAware ADS-B (SDAM)
08:00AM -23.3486 -46.5275 253° West 224 258 8,900 -840 Descending FlightAware ADS-B (SDAM)
08:01AM -23.3533 -46.5434 253° West 211 243 8,700 -900 Descending FlightAware ADS-B (SDAM)
08:01AM -23.3548 -46.5482 252° West 206 237 8,600 -780 Descending FlightAware ADS-B (SBMT / SAO)
08:01AM -23.3578 -46.5582 253° West 203 234 8,500 -1,200 Descending FlightAware ADS-B (SDAM)
08:01AM -23.3621 -46.5728 253° West 203 234 8,100 -1,200 Descending FlightAware ADS-B (SDAM)
08:01AM -23.3664 -46.5872 252° West 202 232 7,900 -1,080 Descending FlightAware ADS-B (SDAM)
08:02AM -23.3707 -46.6016 253° West 202 232 7,600 -1,440 Descending FlightAware ADS-B (SDAM)
08:02AM -23.3750 -46.6162 253° West 203 234 7,200 -1,200 Descending FlightAware ADS-B (SDAM)
08:02AM -23.3792 -46.6306 253° West 201 231 7,000 -600 Descending FlightAware ADS-B (SDAM)
08:02AM -23.3836 -46.6454 253° West 195 224 6,900 -420 Descending FlightAware ADS-B (SDAM)
08:03AM -23.3875 -46.6588 253° West 182 209 6,800 -240 Descending FlightAware ADS-B (SDAM)
08:03AM -23.3914 -46.6717 250° West 192 221 6,800 -300 Level FlightAware ADS-B (SDAM)
08:03AM -23.3938 -46.6768 240° Southwest 199 229 6,700 -600 Descending FlightAware ADS-B (SDAM)
08:03AM -23.3962 -46.6800 226° Southwest 205 236 6,700  Level FlightAware ADS-B (SDAM)
08:03AM -23.3976 -46.6814 232° Southwest 204 235 6,700 -1,200 Level FlightAware ADS-B (SBMT / SAO)
08:03AM -23.4003 -46.6835 213° Southwest 208 239 6,600 -780 Descending FlightAware ADS-B (SDAM)
08:03AM -23.4049 -46.6857 200° South 210 242 6,600  Level FlightAware ADS-B (SDAM)
08:03AM -23.4089 -46.6867 188° South 210 242 6,600 -600 Level FlightAware ADS-B (SDAM)
08:03AM -23.4147 -46.6869 178° South 209 241 6,500 -1,380 Descending FlightAware ADS-B (SDAM)
08:03AM -23.4192 -46.6864 171° South 207 238 6,400 -1,380 Descending FlightAware ADS-B (SDAM)
08:03AM -23.4236 -46.6851 163° South 208 239 6,300 -900 Descending FlightAware ADS-B (SDAM)
08:04AM -23.4370 -46.6792 157° South 205 236 6,100 -1,080 Descending FlightAware ADS-B (SDAM)
08:04AM -23.4438 -46.6762 159° South 206 237 5,900 -1,500 Descending FlightAware ADS-B (SBMT / SAO)
08:04AM -23.4506 -46.6735 160° South 205 236 5,700 -1,680 Descending FlightAware ADS-B (SDAM)
08:04AM -23.4601 -46.6701 162° South 207 238 5,400 -1,320 Descending FlightAware ADS-B (SBMT / SAO)
08:04AM -23.4620 -46.6694 159° South 206 237 5,400 -1,140 Level FlightAware ADS-B (SDAM)
08:04AM -23.4700 -46.6652 145° Southeast 206 237 5,200 -960 Descending FlightAware ADS-B (SBSP / CGH)
08:04AM -23.4736 -46.6616 132° Southeast 203 234 5,200  Level FlightAware ADS-B (SBSP / CGH)
08:04AM -23.4751 -46.6594 126° Southeast 205 236 5,200 -1,020 Level FlightAware ADS-B (SDAM)
08:05AM -23.4742 -46.6607 121° Southeast 204 235 5,100 -1,020 Descending FlightAware ADS-B (SBMT / SAO)
08:05AM -23.4767 -46.6568 117° Southeast 202 232 5,100 -1,020 Level FlightAware ADS-B (SDAM)
08:05AM -23.4792 -46.6500 105° East 197 227 5,000 -720 Descending FlightAware ADS-B (SDAM)
08:05AM -23.4797 -46.6471 98° East 195 224 5,000  Level FlightAware ADS-B (SBMT / SAO)
08:05AM -23.4798 -46.6451 93° East 192 221 5,000 -900 Level FlightAware ADS-B (SDAM)
08:05AM -23.4794 -46.6386 81° East 183 211 4,900 -900 Descending FlightAware ADS-B (SBSP / CGH)
08:05AM -23.4793 -46.6381 82° East 184 212 4,900  Level FlightAware ADS-B (SBMT / SAO)
08:05AM -23.4790 -46.6360 78° East 180 207 4,900 -840 Level FlightAware ADS-B (SDAM)
08:05AM -23.4747 -46.6197 73° East 174 200 4,600 -1,080 Descending FlightAware ADS-B (SBMT / SAO)
08:05AM -23.4746 -46.6193 72° East 173 199 4,500 -900 Descending FlightAware ADS-B (SDAM)
08:06AM -23.4700 -46.6024 73° East 167 192 4,300 -720 Descending FlightAware ADS-B (SBMT / SAO)
08:06AM -23.4696 -46.6012 73° East 166 191 4,300 -1,140 Level FlightAware ADS-B (SBSP / CGH)
08:06AM -23.4664 -46.5893 73° East 156 180 4,000 -1,080 Descending FlightAware ADS-B (SBSP / CGH)
08:06AM -23.4665 -46.5898 73° East 154 177 4,000 -780 Level FlightAware ADS-B (SBMT / SAO)
08:06AM -23.4635 -46.5785 73° East 148 170 3,800 -900 Descending FlightAware ADS-B (SBSP / CGH)
08:06AM -23.4627 -46.5756 73° East 147 169 3,700 -900 Descending FlightAware ADS-B (SBMT / SAO)
08:06AM -23.4606 -46.5677 73° East 145 167 3,600 -600 Descending FlightAware ADS-B (SBSP / CGH)
08:07AM -23.4582 -46.5592 74° East 143 165 3,500 -840 Descending FlightAware ADS-B (SBMT / SAO)
08:07AM -23.4578 -46.5576 74° East 143 165 3,400 -1,080 Descending FlightAware ADS-B (SBSP / CGH)
08:07AM -23.4550 -46.5471 73° East 139 160 3,200 -720 Descending FlightAware ADS-B (SBSP / CGH)
08:07AM -23.4545 -46.5453 74° East 140 161 3,200 -420 Level FlightAware ADS-B (SBMT / SAO)
08:07AM -23.4523 -46.5370 73° East 141 162 3,100 -720 Descending FlightAware ADS-B (SBSP / CGH)
08:07AM -23.4499 -46.5279 73° East 143 165 2,900 -780 Descending FlightAware ADS-B (SBSP / CGH)
08:08AM -23.4468 -46.5167 73° East 139 160 2,700 -780 Descending FlightAware ADS-B (SBSP / CGH)
08:08AM -23.4442 -46.5069 74° East 138 159 2,500 -900 Descending FlightAware ADS-B (SBSP / CGH)
08:10AM -23.4321 -46.4695 137° Southeast  Level Estimated